sensor_id;sensor_type;location;lat;lon;timestamp;P1;durP1;ratioP1;P2;durP2;ratioP2
50433;SDS011;36361;38.954;-9.002;2024-01-30T00:00:42;33.90;;;23.10;;
50433;SDS011;36361;38.954;-9.002;2024-01-30T00:01:43;31.52;;;22.80;;
50433;SDS011;36361;38.954;-9.002;2024-01-30T00:02:44;31.50;;;24.92;;
50433;SDS011;36361;38.954;-9.002;2024-01-30T00:03:46;36.97;;;26.08;;
50433;SDS011;36361;38.954;-9.002;2024-01-30T00:04:46;38.15;;;27.35;;
50433;SDS011;36361;38.954;-9.002;2024-01-30T00:05:47;33.40;;;25.77;;
50433;SDS011;36361;38.954;-9.002;2024-01-30T00:06:48;28.75;;;24.95;;
50433;SDS011;36361;38.954;-9.002;2024-01-30T00:07:49;38.53;;;26.17;;
50433;SDS011;36361;38.954;-9.002;2024-01-30T00:08:50;35.75;;;26.42;;
50433;SDS011;36361;38.954;-9.002;2024-01-30T00:09:51;40.65;;;27.98;;
50433;SDS011;36361;38.954;-9.002;2024-01-30T00:10:52;36.95;;;28.05;;
50433;SDS011;36361;38.954;-9.002;2024-01-30T00:11:53;34.00;;;25.58;;
50433;SDS011;36361;38.954;-9.002;2024-01-30T00:12:53;34.75;;;26.77;;
50433;SDS011;36361;38.954;-9.002;2024-01-30T00:13:54;35.67;;;27.17;;
50433;SDS011;36361;38.954;-9.002;2024-01-30T00:14:58;39.13;;;27.17;;
50433;SDS011;36361;38.954;-9.002;2024-01-30T00:15:59;32.42;;;26.50;;
50433;SDS011;36361;38.954;-9.002;2024-01-30T00:17:00;33.33;;;26.27;;
50433;SDS011;36361;38.954;-9.002;2024-01-30T00:18:01;33.25;;;26.60;;
50433;SDS011;36361;38.954;-9.002;2024-01-30T00:19:02;34.40;;;25.13;;
50433;SDS011;36361;38.954;-9.002;2024-01-30T00:20:04;33.65;;;26.08;;
50433;SDS011;36361;38.954;-9.002;2024-01-30T00:21:09;32.42;;;24.48;;
50433;SDS011;36361;38.954;-9.002;2024-01-30T00:22:10;36.40;;;25.52;;
50433;SDS011;36361;38.954;-9.002;2024-01-30T00:23:10;31.08;;;24.00;;
50433;SDS011;36361;38.954;-9.002;2024-01-30T00:24:11;33.53;;;24.83;;
50433;SDS011;36361;38.954;-9.002;2024-01-30T00:25:12;35.22;;;24.92;;
50433;SDS011;36361;38.954;-9.002;2024-01-30T00:26:13;33.30;;;24.90;;
50433;SDS011;36361;38.954;-9.002;2024-01-30T00:27:15;33.95;;;24.70;;
50433;SDS011;36361;38.954;-9.002;2024-01-30T00:28:16;30.10;;;23.50;;
50433;SDS011;36361;38.954;-9.002;2024-01-30T00:29:17;33.20;;;23.15;;
50433;SDS011;36361;38.954;-9.002;2024-01-30T00:30:20;30.02;;;22.48;;
50433;SDS011;36361;38.954;-9.002;2024-01-30T00:31:21;33.83;;;23.15;;
50433;SDS011;36361;38.954;-9.002;2024-01-30T00:32:22;30.30;;;22.60;;
50433;SDS011;36361;38.954;-9.002;2024-01-30T00:33:23;32.50;;;24.67;;
50433;SDS011;36361;38.954;-9.002;2024-01-30T00:34:24;31.08;;;23.40;;
50433;SDS011;36361;38.954;-9.002;2024-01-30T00:35:25;32.45;;;22.92;;
50433;SDS011;36361;38.954;-9.002;2024-01-30T00:36:26;31.23;;;23.88;;
50433;SDS011;36361;38.954;-9.002;2024-01-30T00:37:30;34.40;;;23.13;;
50433;SDS011;36361;38.954;-9.002;2024-01-30T00:38:32;25.02;;;22.17;;
50433;SDS011;36361;38.954;-9.002;2024-01-30T00:39:33;32.22;;;23.58;;
50433;SDS011;36361;38.954;-9.002;2024-01-30T00:40:34;27.92;;;23.23;;
50433;SDS011;36361;38.954;-9.002;2024-01-30T00:41:35;25.67;;;21.65;;
50433;SDS011;36361;38.954;-9.002;2024-01-30T00:42:35;34.25;;;22.17;;
50433;SDS011;36361;38.954;-9.002;2024-01-30T00:43:36;31.15;;;21.92;;
50433;SDS011;36361;38.954;-9.002;2024-01-30T00:44:37;31.05;;;21.80;;
50433;SDS011;36361;38.954;-9.002;2024-01-30T00:45:39;31.45;;;22.42;;
50433;SDS011;36361;38.954;-9.002;2024-01-30T00:46:39;30.30;;;21.33;;
50433;SDS011;36361;38.954;-9.002;2024-01-30T00:47:40;30.02;;;22.08;;
50433;SDS011;36361;38.954;-9.002;2024-01-30T00:48:41;31.35;;;22.77;;
50433;SDS011;36361;38.954;-9.002;2024-01-30T00:49:42;28.58;;;20.35;;
50433;SDS011;36361;38.954;-9.002;2024-01-30T00:50:43;27.77;;;20.25;;
50433;SDS011;36361;38.954;-9.002;2024-01-30T00:51:44;30.45;;;21.63;;
50433;SDS011;36361;38.954;-9.002;2024-01-30T00:52:45;26.88;;;20.77;;
50433;SDS011;36361;38.954;-9.002;2024-01-30T00:53:45;29.27;;;20.92;;
50433;SDS011;36361;38.954;-9.002;2024-01-30T00:54:46;26.80;;;20.58;;
50433;SDS011;36361;38.954;-9.002;2024-01-30T00:55:47;28.27;;;20.60;;
50433;SDS011;36361;38.954;-9.002;2024-01-30T00:56:48;30.33;;;22.60;;
50433;SDS011;36361;38.954;-9.002;2024-01-30T00:57:49;31.45;;;21.75;;
50433;SDS011;36361;38.954;-9.002;2024-01-30T00:58:49;33.65;;;21.90;;
50433;SDS011;36361;38.954;-9.002;2024-01-30T00:59:50;27.30;;;22.33;;
50433;SDS011;36361;38.954;-9.002;2024-01-30T01:00:51;28.75;;;22.35;;
50433;SDS011;36361;38.954;-9.002;2024-01-30T01:01:52;35.42;;;25.17;;
50433;SDS011;36361;38.954;-9.002;2024-01-30T01:02:53;38.47;;;25.25;;
50433;SDS011;36361;38.954;-9.002;2024-01-30T01:03:54;31.85;;;21.98;;
50433;SDS011;36361;38.954;-9.002;2024-01-30T01:04:54;34.17;;;23.95;;
50433;SDS011;36361;38.954;-9.002;2024-01-30T01:05:55;33.72;;;22.75;;
50433;SDS011;36361;38.954;-9.002;2024-01-30T01:06:56;35.33;;;24.30;;
50433;SDS011;36361;38.954;-9.002;2024-01-30T01:07:57;34.22;;;25.15;;
50433;SDS011;36361;38.954;-9.002;2024-01-30T01:08:57;34.13;;;23.48;;
50433;SDS011;36361;38.954;-9.002;2024-01-30T01:09:58;35.55;;;24.48;;
50433;SDS011;36361;38.954;-9.002;2024-01-30T01:10:59;35.05;;;23.38;;
50433;SDS011;36361;38.954;-9.002;2024-01-30T01:12:01;33.60;;;24.13;;
50433;SDS011;36361;38.954;-9.002;2024-01-30T01:13:02;32.58;;;22.92;;
50433;SDS011;36361;38.954;-9.002;2024-01-30T01:14:03;30.30;;;22.60;;
50433;SDS011;36361;38.954;-9.002;2024-01-30T01:15:05;35.25;;;22.92;;
50433;SDS011;36361;38.954;-9.002;2024-01-30T01:16:09;27.50;;;21.73;;
50433;SDS011;36361;38.954;-9.002;2024-01-30T01:17:10;28.45;;;20.92;;
50433;SDS011;36361;38.954;-9.002;2024-01-30T01:18:11;28.48;;;21.35;;
50433;SDS011;36361;38.954;-9.002;2024-01-30T01:19:12;25.20;;;20.75;;
50433;SDS011;36361;38.954;-9.002;2024-01-30T01:20:12;29.15;;;19.90;;
50433;SDS011;36361;38.954;-9.002;2024-01-30T01:21:13;26.70;;;19.08;;
50433;SDS011;36361;38.954;-9.002;2024-01-30T01:22:15;36.03;;;20.50;;
50433;SDS011;36361;38.954;-9.002;2024-01-30T01:23:17;31.70;;;20.60;;
50433;SDS011;36361;38.954;-9.002;2024-01-30T01:24:18;29.55;;;21.65;;
50433;SDS011;36361;38.954;-9.002;2024-01-30T01:25:19;37.60;;;27.90;;
50433;SDS011;36361;38.954;-9.002;2024-01-30T01:26:19;43.38;;;31.92;;
50433;SDS011;36361;38.954;-9.002;2024-01-30T01:27:21;45.83;;;32.97;;
50433;SDS011;36361;38.954;-9.002;2024-01-30T01:28:22;43.75;;;33.65;;
50433;SDS011;36361;38.954;-9.002;2024-01-30T01:29:23;44.95;;;33.08;;
50433;SDS011;36361;38.954;-9.002;2024-01-30T01:30:28;49.53;;;33.70;;
50433;SDS011;36361;38.954;-9.002;2024-01-30T01:31:30;48.28;;;33.67;;
50433;SDS011;36361;38.954;-9.002;2024-01-30T01:32:31;42.92;;;32.72;;
50433;SDS011;36361;38.954;-9.002;2024-01-30T01:33:32;42.25;;;31.23;;
50433;SDS011;36361;38.954;-9.002;2024-01-30T01:34:33;38.03;;;29.58;;
50433;SDS011;36361;38.954;-9.002;2024-01-30T01:35:34;41.75;;;30.17;;
50433;SDS011;36361;38.954;-9.002;2024-01-30T01:36:35;33.17;;;27.45;;
50433;SDS011;36361;38.954;-9.002;2024-01-30T01:37:36;39.05;;;27.95;;
50433;SDS011;36361;38.954;-9.002;2024-01-30T01:38:37;33.47;;;26.00;;
50433;SDS011;36361;38.954;-9.002;2024-01-30T01:39:37;31.88;;;25.73;;
50433;SDS011;36361;38.954;-9.002;2024-01-30T01:40:38;31.63;;;25.42;;
50433;SDS011;36361;38.954;-9.002;2024-01-30T01:41:40;32.90;;;25.38;;
50433;SDS011;36361;38.954;-9.002;2024-01-30T01:42:40;29.98;;;24.98;;
50433;SDS011;36361;38.954;-9.002;2024-01-30T01:43:41;34.17;;;24.77;;
50433;SDS011;36361;38.954;-9.002;2024-01-30T01:44:42;30.55;;;23.35;;
50433;SDS011;36361;38.954;-9.002;2024-01-30T01:45:43;28.77;;;23.42;;
50433;SDS011;36361;38.954;-9.002;2024-01-30T01:46:43;30.95;;;23.52;;
50433;SDS011;36361;38.954;-9.002;2024-01-30T01:47:45;28.25;;;24.27;;
50433;SDS011;36361;38.954;-9.002;2024-01-30T01:48:50;32.55;;;27.23;;
50433;SDS011;36361;38.954;-9.002;2024-01-30T01:49:51;30.30;;;25.00;;
50433;SDS011;36361;38.954;-9.002;2024-01-30T01:50:52;31.80;;;24.90;;
50433;SDS011;36361;38.954;-9.002;2024-01-30T01:51:53;34.40;;;25.15;;
50433;SDS011;36361;38.954;-9.002;2024-01-30T01:52:59;29.90;;;24.38;;
50433;SDS011;36361;38.954;-9.002;2024-01-30T01:54:00;34.10;;;24.95;;
50433;SDS011;36361;38.954;-9.002;2024-01-30T01:55:04;25.90;;;23.08;;
50433;SDS011;36361;38.954;-9.002;2024-01-30T01:56:05;30.33;;;24.55;;
50433;SDS011;36361;38.954;-9.002;2024-01-30T01:57:06;32.25;;;24.50;;
50433;SDS011;36361;38.954;-9.002;2024-01-30T01:58:07;32.22;;;24.25;;
50433;SDS011;36361;38.954;-9.002;2024-01-30T01:59:09;29.92;;;23.55;;
50433;SDS011;36361;38.954;-9.002;2024-01-30T02:00:10;30.45;;;24.15;;
50433;SDS011;36361;38.954;-9.002;2024-01-30T02:01:13;32.58;;;24.55;;
50433;SDS011;36361;38.954;-9.002;2024-01-30T02:02:14;33.20;;;24.10;;
50433;SDS011;36361;38.954;-9.002;2024-01-30T02:03:19;30.10;;;22.83;;
50433;SDS011;36361;38.954;-9.002;2024-01-30T02:04:23;32.53;;;25.33;;
50433;SDS011;36361;38.954;-9.002;2024-01-30T02:05:24;33.58;;;24.70;;
50433;SDS011;36361;38.954;-9.002;2024-01-30T02:06:25;31.42;;;23.20;;
50433;SDS011;36361;38.954;-9.002;2024-01-30T02:07:27;34.42;;;24.17;;
50433;SDS011;36361;38.954;-9.002;2024-01-30T02:08:28;31.52;;;24.88;;
50433;SDS011;36361;38.954;-9.002;2024-01-30T02:09:29;39.03;;;25.98;;
50433;SDS011;36361;38.954;-9.002;2024-01-30T02:10:30;34.97;;;25.15;;
50433;SDS011;36361;38.954;-9.002;2024-01-30T02:11:31;38.35;;;23.50;;
50433;SDS011;36361;38.954;-9.002;2024-01-30T02:12:32;36.17;;;23.60;;
50433;SDS011;36361;38.954;-9.002;2024-01-30T02:13:33;30.55;;;21.98;;
50433;SDS011;36361;38.954;-9.002;2024-01-30T02:14:43;26.42;;;21.67;;
50433;SDS011;36361;38.954;-9.002;2024-01-30T02:15:48;32.00;;;21.73;;
50433;SDS011;36361;38.954;-9.002;2024-01-30T02:16:50;31.48;;;22.15;;
50433;SDS011;36361;38.954;-9.002;2024-01-30T02:17:51;33.35;;;22.83;;
50433;SDS011;36361;38.954;-9.002;2024-01-30T02:18:52;30.58;;;20.92;;
50433;SDS011;36361;38.954;-9.002;2024-01-30T02:19:52;28.27;;;21.98;;
50433;SDS011;36361;38.954;-9.002;2024-01-30T02:20:54;29.23;;;21.98;;
50433;SDS011;36361;38.954;-9.002;2024-01-30T02:21:56;33.40;;;21.75;;
50433;SDS011;36361;38.954;-9.002;2024-01-30T02:22:58;31.02;;;22.17;;
50433;SDS011;36361;38.954;-9.002;2024-01-30T02:24:01;26.85;;;21.75;;
50433;SDS011;36361;38.954;-9.002;2024-01-30T02:25:04;31.95;;;22.75;;
50433;SDS011;36361;38.954;-9.002;2024-01-30T02:26:05;34.28;;;22.10;;
50433;SDS011;36361;38.954;-9.002;2024-01-30T02:27:05;28.52;;;21.52;;
50433;SDS011;36361;38.954;-9.002;2024-01-30T02:28:06;32.60;;;21.67;;
50433;SDS011;36361;38.954;-9.002;2024-01-30T02:29:07;34.97;;;21.75;;
50433;SDS011;36361;38.954;-9.002;2024-01-30T02:30:08;34.63;;;22.13;;
50433;SDS011;36361;38.954;-9.002;2024-01-30T02:31:09;28.75;;;21.40;;
50433;SDS011;36361;38.954;-9.002;2024-01-30T02:32:10;29.13;;;21.50;;
50433;SDS011;36361;38.954;-9.002;2024-01-30T02:33:11;33.40;;;22.17;;
50433;SDS011;36361;38.954;-9.002;2024-01-30T02:34:13;30.40;;;22.17;;
50433;SDS011;36361;38.954;-9.002;2024-01-30T02:35:14;30.95;;;21.40;;
50433;SDS011;36361;38.954;-9.002;2024-01-30T02:36:14;30.13;;;21.23;;
50433;SDS011;36361;38.954;-9.002;2024-01-30T02:37:16;30.40;;;21.55;;
50433;SDS011;36361;38.954;-9.002;2024-01-30T02:38:17;30.55;;;21.00;;
50433;SDS011;36361;38.954;-9.002;2024-01-30T02:39:18;30.42;;;20.30;;
50433;SDS011;36361;38.954;-9.002;2024-01-30T02:40:18;30.20;;;21.55;;
50433;SDS011;36361;38.954;-9.002;2024-01-30T02:41:20;24.90;;;19.45;;
50433;SDS011;36361;38.954;-9.002;2024-01-30T02:42:21;28.60;;;19.70;;
50433;SDS011;36361;38.954;-9.002;2024-01-30T02:43:22;29.15;;;20.42;;
50433;SDS011;36361;38.954;-9.002;2024-01-30T02:44:23;30.92;;;20.90;;
50433;SDS011;36361;38.954;-9.002;2024-01-30T02:45:24;32.05;;;20.67;;
50433;SDS011;36361;38.954;-9.002;2024-01-30T02:46:25;28.50;;;19.65;;
50433;SDS011;36361;38.954;-9.002;2024-01-30T02:47:25;22.80;;;19.23;;
50433;SDS011;36361;38.954;-9.002;2024-01-30T02:48:26;32.58;;;20.45;;
50433;SDS011;36361;38.954;-9.002;2024-01-30T02:49:27;27.33;;;19.23;;
50433;SDS011;36361;38.954;-9.002;2024-01-30T02:50:28;32.10;;;19.33;;
50433;SDS011;36361;38.954;-9.002;2024-01-30T02:51:28;26.23;;;21.42;;
50433;SDS011;36361;38.954;-9.002;2024-01-30T02:52:29;24.88;;;20.40;;
50433;SDS011;36361;38.954;-9.002;2024-01-30T02:53:30;29.50;;;20.23;;
50433;SDS011;36361;38.954;-9.002;2024-01-30T02:54:31;30.95;;;19.65;;
50433;SDS011;36361;38.954;-9.002;2024-01-30T02:55:32;26.83;;;19.17;;
50433;SDS011;36361;38.954;-9.002;2024-01-30T02:56:33;27.13;;;18.70;;
50433;SDS011;36361;38.954;-9.002;2024-01-30T02:57:34;30.38;;;19.67;;
50433;SDS011;36361;38.954;-9.002;2024-01-30T02:58:35;25.98;;;19.15;;
50433;SDS011;36361;38.954;-9.002;2024-01-30T02:59:36;26.58;;;20.00;;
50433;SDS011;36361;38.954;-9.002;2024-01-30T03:00:37;23.30;;;18.65;;
50433;SDS011;36361;38.954;-9.002;2024-01-30T03:01:44;26.48;;;18.50;;
50433;SDS011;36361;38.954;-9.002;2024-01-30T03:02:46;20.50;;;17.50;;
50433;SDS011;36361;38.954;-9.002;2024-01-30T03:03:47;24.35;;;17.25;;
50433;SDS011;36361;38.954;-9.002;2024-01-30T03:04:48;23.33;;;16.98;;
50433;SDS011;36361;38.954;-9.002;2024-01-30T03:05:49;23.70;;;17.40;;
50433;SDS011;36361;38.954;-9.002;2024-01-30T03:06:49;25.35;;;17.35;;
50433;SDS011;36361;38.954;-9.002;2024-01-30T03:07:50;22.45;;;16.73;;
50433;SDS011;36361;38.954;-9.002;2024-01-30T03:08:51;23.60;;;16.80;;
50433;SDS011;36361;38.954;-9.002;2024-01-30T03:09:52;26.70;;;17.00;;
50433;SDS011;36361;38.954;-9.002;2024-01-30T03:10:53;22.02;;;16.63;;
50433;SDS011;36361;38.954;-9.002;2024-01-30T03:11:54;19.85;;;16.20;;
50433;SDS011;36361;38.954;-9.002;2024-01-30T03:12:54;25.73;;;16.90;;
50433;SDS011;36361;38.954;-9.002;2024-01-30T03:13:55;27.55;;;16.08;;
50433;SDS011;36361;38.954;-9.002;2024-01-30T03:14:56;25.05;;;17.02;;
50433;SDS011;36361;38.954;-9.002;2024-01-30T03:15:57;23.23;;;17.30;;
50433;SDS011;36361;38.954;-9.002;2024-01-30T03:16:58;22.63;;;16.35;;
50433;SDS011;36361;38.954;-9.002;2024-01-30T03:17:58;21.58;;;16.85;;
50433;SDS011;36361;38.954;-9.002;2024-01-30T03:18:59;26.17;;;17.38;;
50433;SDS011;36361;38.954;-9.002;2024-01-30T03:20:02;22.27;;;16.77;;
50433;SDS011;36361;38.954;-9.002;2024-01-30T03:21:04;23.35;;;17.33;;
50433;SDS011;36361;38.954;-9.002;2024-01-30T03:22:05;28.88;;;17.25;;
50433;SDS011;36361;38.954;-9.002;2024-01-30T03:23:05;26.25;;;16.90;;
50433;SDS011;36361;38.954;-9.002;2024-01-30T03:24:06;25.05;;;17.15;;
50433;SDS011;36361;38.954;-9.002;2024-01-30T03:25:07;25.90;;;17.42;;
50433;SDS011;36361;38.954;-9.002;2024-01-30T03:26:08;24.27;;;18.00;;
50433;SDS011;36361;38.954;-9.002;2024-01-30T03:27:09;22.80;;;17.55;;
50433;SDS011;36361;38.954;-9.002;2024-01-30T03:28:10;19.17;;;16.77;;
50433;SDS011;36361;38.954;-9.002;2024-01-30T03:29:11;21.75;;;17.58;;
50433;SDS011;36361;38.954;-9.002;2024-01-30T03:30:12;25.20;;;18.20;;
50433;SDS011;36361;38.954;-9.002;2024-01-30T03:31:14;22.45;;;16.33;;
50433;SDS011;36361;38.954;-9.002;2024-01-30T03:32:16;25.42;;;18.75;;
50433;SDS011;36361;38.954;-9.002;2024-01-30T03:33:16;23.42;;;19.13;;
50433;SDS011;36361;38.954;-9.002;2024-01-30T03:34:17;25.95;;;19.13;;
50433;SDS011;36361;38.954;-9.002;2024-01-30T03:35:19;22.63;;;18.35;;
50433;SDS011;36361;38.954;-9.002;2024-01-30T03:36:20;23.73;;;18.08;;
50433;SDS011;36361;38.954;-9.002;2024-01-30T03:37:20;23.20;;;17.45;;
50433;SDS011;36361;38.954;-9.002;2024-01-30T03:38:21;21.73;;;18.85;;
50433;SDS011;36361;38.954;-9.002;2024-01-30T03:39:22;21.40;;;17.27;;
50433;SDS011;36361;38.954;-9.002;2024-01-30T03:40:23;24.85;;;18.17;;
50433;SDS011;36361;38.954;-9.002;2024-01-30T03:41:24;23.83;;;17.42;;
50433;SDS011;36361;38.954;-9.002;2024-01-30T03:42:25;25.58;;;17.90;;
50433;SDS011;36361;38.954;-9.002;2024-01-30T03:43:27;26.98;;;18.45;;
50433;SDS011;36361;38.954;-9.002;2024-01-30T03:44:28;22.98;;;17.38;;
50433;SDS011;36361;38.954;-9.002;2024-01-30T03:45:29;23.33;;;17.38;;
50433;SDS011;36361;38.954;-9.002;2024-01-30T03:46:29;25.08;;;16.55;;
50433;SDS011;36361;38.954;-9.002;2024-01-30T03:47:30;23.88;;;17.02;;
50433;SDS011;36361;38.954;-9.002;2024-01-30T03:48:31;22.00;;;16.52;;
50433;SDS011;36361;38.954;-9.002;2024-01-30T03:49:32;22.80;;;16.50;;
50433;SDS011;36361;38.954;-9.002;2024-01-30T03:50:33;22.60;;;16.55;;
50433;SDS011;36361;38.954;-9.002;2024-01-30T03:51:33;21.30;;;16.60;;
50433;SDS011;36361;38.954;-9.002;2024-01-30T03:52:34;21.55;;;17.45;;
50433;SDS011;36361;38.954;-9.002;2024-01-30T03:53:35;23.15;;;17.08;;
50433;SDS011;36361;38.954;-9.002;2024-01-30T03:54:36;24.73;;;17.77;;
50433;SDS011;36361;38.954;-9.002;2024-01-30T03:55:36;27.63;;;17.92;;
50433;SDS011;36361;38.954;-9.002;2024-01-30T03:56:37;25.20;;;17.60;;
50433;SDS011;36361;38.954;-9.002;2024-01-30T03:57:38;24.63;;;18.38;;
50433;SDS011;36361;38.954;-9.002;2024-01-30T03:58:39;23.23;;;17.65;;
50433;SDS011;36361;38.954;-9.002;2024-01-30T03:59:43;23.02;;;18.17;;
50433;SDS011;36361;38.954;-9.002;2024-01-30T04:00:44;22.10;;;17.98;;
50433;SDS011;36361;38.954;-9.002;2024-01-30T04:01:46;24.60;;;17.27;;
50433;SDS011;36361;38.954;-9.002;2024-01-30T04:02:47;25.33;;;18.95;;
50433;SDS011;36361;38.954;-9.002;2024-01-30T04:03:47;25.23;;;17.48;;
50433;SDS011;36361;38.954;-9.002;2024-01-30T04:04:48;28.70;;;17.40;;
50433;SDS011;36361;38.954;-9.002;2024-01-30T04:05:49;22.27;;;16.70;;
50433;SDS011;36361;38.954;-9.002;2024-01-30T04:06:51;26.50;;;17.20;;
50433;SDS011;36361;38.954;-9.002;2024-01-30T04:07:52;22.88;;;16.95;;
50433;SDS011;36361;38.954;-9.002;2024-01-30T04:08:53;23.83;;;16.75;;
50433;SDS011;36361;38.954;-9.002;2024-01-30T04:09:54;22.52;;;16.63;;
50433;SDS011;36361;38.954;-9.002;2024-01-30T04:10:54;24.35;;;16.50;;
50433;SDS011;36361;38.954;-9.002;2024-01-30T04:11:55;20.00;;;16.65;;
50433;SDS011;36361;38.954;-9.002;2024-01-30T04:12:56;24.30;;;15.73;;
50433;SDS011;36361;38.954;-9.002;2024-01-30T04:13:57;22.33;;;15.77;;
50433;SDS011;36361;38.954;-9.002;2024-01-30T04:14:58;19.05;;;15.27;;
50433;SDS011;36361;38.954;-9.002;2024-01-30T04:15:59;21.27;;;15.10;;
50433;SDS011;36361;38.954;-9.002;2024-01-30T04:17:03;21.08;;;14.85;;
50433;SDS011;36361;38.954;-9.002;2024-01-30T04:18:04;22.15;;;15.23;;
50433;SDS011;36361;38.954;-9.002;2024-01-30T04:19:05;20.73;;;14.68;;
50433;SDS011;36361;38.954;-9.002;2024-01-30T04:20:06;20.70;;;15.40;;
50433;SDS011;36361;38.954;-9.002;2024-01-30T04:21:07;20.75;;;14.57;;
50433;SDS011;36361;38.954;-9.002;2024-01-30T04:22:08;22.70;;;14.23;;
50433;SDS011;36361;38.954;-9.002;2024-01-30T04:23:08;20.17;;;15.02;;
50433;SDS011;36361;38.954;-9.002;2024-01-30T04:24:09;24.65;;;15.15;;
50433;SDS011;36361;38.954;-9.002;2024-01-30T04:25:10;21.35;;;14.45;;
50433;SDS011;36361;38.954;-9.002;2024-01-30T04:26:12;24.75;;;14.50;;
50433;SDS011;36361;38.954;-9.002;2024-01-30T04:27:12;25.63;;;14.80;;
50433;SDS011;36361;38.954;-9.002;2024-01-30T04:28:13;19.85;;;13.35;;
50433;SDS011;36361;38.954;-9.002;2024-01-30T04:29:14;19.92;;;14.95;;
50433;SDS011;36361;38.954;-9.002;2024-01-30T04:30:15;19.65;;;14.48;;
50433;SDS011;36361;38.954;-9.002;2024-01-30T04:31:16;22.52;;;14.70;;
50433;SDS011;36361;38.954;-9.002;2024-01-30T04:32:17;19.20;;;14.88;;
50433;SDS011;36361;38.954;-9.002;2024-01-30T04:33:17;26.30;;;14.93;;
50433;SDS011;36361;38.954;-9.002;2024-01-30T04:34:18;21.63;;;14.82;;
50433;SDS011;36361;38.954;-9.002;2024-01-30T04:35:19;20.30;;;13.90;;
50433;SDS011;36361;38.954;-9.002;2024-01-30T04:36:23;19.33;;;14.10;;
50433;SDS011;36361;38.954;-9.002;2024-01-30T04:37:24;23.75;;;14.77;;
50433;SDS011;36361;38.954;-9.002;2024-01-30T04:38:25;19.98;;;14.93;;
50433;SDS011;36361;38.954;-9.002;2024-01-30T04:39:26;20.75;;;13.63;;
50433;SDS011;36361;38.954;-9.002;2024-01-30T04:40:26;21.35;;;13.90;;
50433;SDS011;36361;38.954;-9.002;2024-01-30T04:41:27;16.55;;;13.65;;
50433;SDS011;36361;38.954;-9.002;2024-01-30T04:42:31;19.50;;;12.98;;
50433;SDS011;36361;38.954;-9.002;2024-01-30T04:43:32;20.33;;;13.90;;
50433;SDS011;36361;38.954;-9.002;2024-01-30T04:44:33;25.10;;;14.13;;
50433;SDS011;36361;38.954;-9.002;2024-01-30T04:45:33;20.33;;;13.85;;
50433;SDS011;36361;38.954;-9.002;2024-01-30T04:46:34;19.63;;;14.10;;
50433;SDS011;36361;38.954;-9.002;2024-01-30T04:47:35;19.35;;;13.25;;
50433;SDS011;36361;38.954;-9.002;2024-01-30T04:48:36;19.02;;;13.27;;
50433;SDS011;36361;38.954;-9.002;2024-01-30T04:49:40;22.08;;;13.13;;
50433;SDS011;36361;38.954;-9.002;2024-01-30T04:50:41;21.58;;;14.57;;
50433;SDS011;36361;38.954;-9.002;2024-01-30T04:51:41;21.25;;;14.85;;
50433;SDS011;36361;38.954;-9.002;2024-01-30T04:52:42;23.38;;;15.70;;
50433;SDS011;36361;38.954;-9.002;2024-01-30T04:53:43;23.58;;;15.35;;
50433;SDS011;36361;38.954;-9.002;2024-01-30T04:54:44;18.40;;;14.43;;
50433;SDS011;36361;38.954;-9.002;2024-01-30T04:55:44;21.20;;;14.82;;
50433;SDS011;36361;38.954;-9.002;2024-01-30T04:56:45;22.30;;;13.27;;
50433;SDS011;36361;38.954;-9.002;2024-01-30T04:57:46;21.10;;;13.85;;
50433;SDS011;36361;38.954;-9.002;2024-01-30T04:58:47;23.17;;;14.13;;
50433;SDS011;36361;38.954;-9.002;2024-01-30T04:59:48;19.67;;;14.23;;
50433;SDS011;36361;38.954;-9.002;2024-01-30T05:00:48;20.90;;;15.35;;
50433;SDS011;36361;38.954;-9.002;2024-01-30T05:01:51;20.40;;;14.38;;
50433;SDS011;36361;38.954;-9.002;2024-01-30T05:02:54;20.08;;;13.85;;
50433;SDS011;36361;38.954;-9.002;2024-01-30T05:03:55;23.17;;;15.05;;
50433;SDS011;36361;38.954;-9.002;2024-01-30T05:04:56;21.08;;;15.10;;
50433;SDS011;36361;38.954;-9.002;2024-01-30T05:05:58;23.20;;;14.65;;
50433;SDS011;36361;38.954;-9.002;2024-01-30T05:06:58;19.67;;;12.85;;
50433;SDS011;36361;38.954;-9.002;2024-01-30T05:07:59;22.58;;;14.05;;
50433;SDS011;36361;38.954;-9.002;2024-01-30T05:09:00;20.05;;;13.70;;
50433;SDS011;36361;38.954;-9.002;2024-01-30T05:10:01;21.95;;;14.07;;
50433;SDS011;36361;38.954;-9.002;2024-01-30T05:11:02;17.13;;;13.75;;
50433;SDS011;36361;38.954;-9.002;2024-01-30T05:12:06;22.45;;;14.45;;
50433;SDS011;36361;38.954;-9.002;2024-01-30T05:13:07;25.65;;;14.27;;
50433;SDS011;36361;38.954;-9.002;2024-01-30T05:14:08;25.95;;;14.85;;
50433;SDS011;36361;38.954;-9.002;2024-01-30T05:15:09;24.45;;;15.18;;
50433;SDS011;36361;38.954;-9.002;2024-01-30T05:16:10;20.10;;;14.13;;
50433;SDS011;36361;38.954;-9.002;2024-01-30T05:17:11;23.90;;;14.45;;
50433;SDS011;36361;38.954;-9.002;2024-01-30T05:18:13;21.92;;;15.43;;
50433;SDS011;36361;38.954;-9.002;2024-01-30T05:19:14;18.48;;;15.18;;
50433;SDS011;36361;38.954;-9.002;2024-01-30T05:20:14;19.92;;;14.20;;
50433;SDS011;36361;38.954;-9.002;2024-01-30T05:21:15;23.38;;;15.20;;
50433;SDS011;36361;38.954;-9.002;2024-01-30T05:22:16;21.20;;;14.85;;
50433;SDS011;36361;38.954;-9.002;2024-01-30T05:23:18;20.17;;;15.38;;
50433;SDS011;36361;38.954;-9.002;2024-01-30T05:24:19;25.52;;;15.82;;
50433;SDS011;36361;38.954;-9.002;2024-01-30T05:25:20;18.85;;;13.65;;
50433;SDS011;36361;38.954;-9.002;2024-01-30T05:26:21;20.02;;;14.52;;
50433;SDS011;36361;38.954;-9.002;2024-01-30T05:27:23;20.65;;;14.45;;
50433;SDS011;36361;38.954;-9.002;2024-01-30T05:28:23;21.10;;;14.05;;
50433;SDS011;36361;38.954;-9.002;2024-01-30T05:29:24;23.40;;;15.35;;
50433;SDS011;36361;38.954;-9.002;2024-01-30T05:30:25;25.63;;;13.25;;
50433;SDS011;36361;38.954;-9.002;2024-01-30T05:31:26;24.50;;;14.23;;
50433;SDS011;36361;38.954;-9.002;2024-01-30T05:32:27;16.70;;;13.63;;
50433;SDS011;36361;38.954;-9.002;2024-01-30T05:33:28;22.70;;;13.35;;
50433;SDS011;36361;38.954;-9.002;2024-01-30T05:34:29;19.25;;;13.93;;
50433;SDS011;36361;38.954;-9.002;2024-01-30T05:35:29;22.50;;;13.43;;
50433;SDS011;36361;38.954;-9.002;2024-01-30T05:36:30;19.67;;;14.27;;
50433;SDS011;36361;38.954;-9.002;2024-01-30T05:37:31;18.00;;;13.02;;
50433;SDS011;36361;38.954;-9.002;2024-01-30T05:38:32;16.83;;;13.20;;
50433;SDS011;36361;38.954;-9.002;2024-01-30T05:39:33;20.00;;;14.57;;
50433;SDS011;36361;38.954;-9.002;2024-01-30T05:40:33;17.20;;;13.82;;
50433;SDS011;36361;38.954;-9.002;2024-01-30T05:41:34;19.70;;;14.00;;
50433;SDS011;36361;38.954;-9.002;2024-01-30T05:42:35;18.65;;;12.75;;
50433;SDS011;36361;38.954;-9.002;2024-01-30T05:43:36;20.38;;;14.20;;
50433;SDS011;36361;38.954;-9.002;2024-01-30T05:44:37;20.30;;;13.35;;
50433;SDS011;36361;38.954;-9.002;2024-01-30T05:45:37;19.30;;;13.55;;
50433;SDS011;36361;38.954;-9.002;2024-01-30T05:46:38;20.55;;;14.38;;
50433;SDS011;36361;38.954;-9.002;2024-01-30T05:47:39;23.88;;;15.02;;
50433;SDS011;36361;38.954;-9.002;2024-01-30T05:48:40;27.70;;;14.07;;
50433;SDS011;36361;38.954;-9.002;2024-01-30T05:49:41;22.50;;;14.68;;
50433;SDS011;36361;38.954;-9.002;2024-01-30T05:50:42;24.70;;;15.07;;
50433;SDS011;36361;38.954;-9.002;2024-01-30T05:51:43;23.17;;;14.63;;
50433;SDS011;36361;38.954;-9.002;2024-01-30T05:52:43;20.05;;;13.20;;